»·PEaware :: ASA258 CYVR-KPDX

ASA258 :: CYVR-KPDX

FLIGHT INFORMATION

Flight Status: Arrived
Operator:
Alaska Airlines
More flights by this operator :: More flights under this callsign
Pilot: Brad M. (22842)
Aircraft: BOEING 737-800
(B738)
More flights by this aircraft type
Origin: CYVR Vancouver Intl
Canada
Destination: KPDX Portland Intl
United States
More flights between these airports :: More routes between these airports
Route: +YVR1 YVR J5 SEA BUWZO KRATR2
File this flight plan on PilotEdge
Remarks:
Altitude:
(Current/Filed)
32,000ft
Speed:
(Current/Filed)
350kts
Departed: 08-Jan-19 07:06 PM
Arrived: 08-Jan-19 07:55 PM
Distance/Time
Traveled:
218nm/0:49
Distance/Time
To Go:
Arrived

Flight Plot

Page will automatically refresh every two minutes.

Flight plan parsing failed; only flown route is shown


Map Options




Map Legend


Flown Route
Filed Route
Departure Airport
Arrival Airport
Navaid (VOR, NDB)
Fix

Horizontal Profiles

Position Reports

Time Latitude Longitude Heading Altitude Ground
Speed
08-Jan-19 18:46 49.191872 -123.182096 10 16ft 0kts
08-Jan-19 18:47 49.191872 -123.182096 10 16ft 0kts
08-Jan-19 18:48 49.191872 -123.182096 10 16ft 0kts
08-Jan-19 18:49 49.191872 -123.182096 10 16ft 0kts
08-Jan-19 18:50 49.191872 -123.182096 10 16ft 0kts
08-Jan-19 18:51 49.191872 -123.182096 10 16ft 0kts
08-Jan-19 18:52 49.191872 -123.182096 10 16ft 0kts
08-Jan-19 18:53 49.191872 -123.182096 10 16ft 0kts
08-Jan-19 18:54 49.191872 -123.182096 10 16ft 0kts
08-Jan-19 18:55 49.191761 -123.182127 10 16ft 2kts
08-Jan-19 18:56 49.191230 -123.182119 317 16ft 2kts
08-Jan-19 18:57 49.191125 -123.181784 279 16ft 0kts
08-Jan-19 18:58 49.191125 -123.181784 279 16ft 0kts
08-Jan-19 18:59 49.191078 -123.184548 298 16ft 8kts
08-Jan-19 19:00 49.192015 -123.187373 321 16ft 11kts
08-Jan-19 19:01 49.193296 -123.192524 259 16ft 15kts
08-Jan-19 19:02 49.192329 -123.200294 259 16ft 21kts
08-Jan-19 19:03 49.192005 -123.207642 252 16ft 0kts
08-Jan-19 19:04 49.189993 -123.206902 100 16ft 30kts
08-Jan-19 19:05 49.183909 -123.151583 98 1007ft 171kts
08-Jan-19 19:06 49.173764 -123.071509 100 2687ft 219kts
08-Jan-19 19:07 49.129777 -123.027165 215 4911ft 259kts
08-Jan-19 19:08 49.081708 -123.110039 206 7788ft 263kts
08-Jan-19 19:09 49.011443 -123.120383 163 10401ft 279kts
08-Jan-19 19:10 48.934420 -123.073314 165 12723ft 306kts
08-Jan-19 19:11 48.860721 -123.034958 165 15101ft 315kts
08-Jan-19 19:12 48.773220 -122.989312 165 17581ft 326kts
08-Jan-19 19:13 48.686248 -122.944017 165 19822ft 336kts
08-Jan-19 19:14 48.597911 -122.898162 165 21833ft 345kts
08-Jan-19 19:15 48.506210 -122.850733 166 23634ft 352kts
08-Jan-19 19:16 48.416305 -122.804400 166 25192ft 363kts
08-Jan-19 19:17 48.331488 -122.760773 166 26563ft 370kts
08-Jan-19 19:18 48.233355 -122.710483 166 28042ft 376kts
08-Jan-19 19:19 48.134595 -122.660110 166 29261ft 385kts
08-Jan-19 19:20 48.034211 -122.609076 166 30483ft 391kts
08-Jan-19 19:22 47.931156 -122.556972 166 30927ft 405kts
08-Jan-19 19:23 47.831898 -122.506935 166 30917ft 405kts
08-Jan-19 19:24 47.736872 -122.459236 166 30914ft 404kts
08-Jan-19 19:25 47.631669 -122.406682 166 30913ft 404kts
08-Jan-19 19:26 47.524493 -122.353457 166 30911ft 403kts
08-Jan-19 19:27 47.420185 -122.308002 179 30910ft 396kts
08-Jan-19 19:28 47.313453 -122.309637 183 30895ft 409kts
08-Jan-19 19:29 47.201952 -122.309760 182 30893ft 408kts
08-Jan-19 19:30 47.092168 -122.309770 182 28396ft 404kts
08-Jan-19 19:31 46.981757 -122.309784 182 24137ft 406kts
08-Jan-19 19:32 46.877608 -122.309774 182 22642ft 397kts
08-Jan-19 19:33 46.769076 -122.309800 182 21671ft 392kts
08-Jan-19 19:34 46.668507 -122.309798 182 20752ft 387kts
08-Jan-19 19:35 46.562717 -122.309760 182 19750ft 379kts
08-Jan-19 19:36 46.465388 -122.309682 182 17466ft 351kts
08-Jan-19 19:37 46.364676 -122.309688 183 14348ft 348kts
08-Jan-19 19:38 46.271925 -122.309670 184 11959ft 316kts
08-Jan-19 19:39 46.188083 -122.347462 200 10614ft 325kts
08-Jan-19 19:40 46.110821 -122.391104 199 10317ft 270kts
08-Jan-19 19:41 46.046857 -122.426285 198 9950ft 226kts
08-Jan-19 19:41 45.997856 -122.452651 197 9137ft 239kts
08-Jan-19 19:43 45.926718 -122.494853 213 7944ft 241kts
08-Jan-19 19:43 45.890434 -122.540611 215 7114ft 247kts
08-Jan-19 19:44 45.839947 -122.603997 215 6112ft 249kts
08-Jan-19 19:45 45.795965 -122.659046 215 5312ft 250kts
08-Jan-19 19:46 45.754712 -122.726734 246 5017ft 231kts
08-Jan-19 19:48 45.739604 -122.828684 219 4990ft 212kts
08-Jan-19 19:48 45.699916 -122.822485 151 4938ft 178kts
08-Jan-19 19:49 45.664842 -122.773933 122 3049ft 170kts
08-Jan-19 19:50 45.642790 -122.719165 118 2370ft 162kts
08-Jan-19 19:51 45.623146 -122.668495 118 1183ft 131kts
08-Jan-19 19:52 45.605670 -122.623499 117 499ft 132kts
08-Jan-19 19:53 45.589009 -122.580789 119 37ft 60kts
08-Jan-19 19:54 45.586402 -122.576283 202 37ft 7kts
08-Jan-19 19:55 45.585618 -122.576900 208 37ft 7kts
08-Jan-19 19:56 45.585061 -122.578052 246 36ft 0kts
08-Jan-19 19:57 45.585061 -122.578052 246 36ft 0kts
08-Jan-19 19:58 45.585061 -122.578052 246 36ft 0kts

Navigation Log

Ident Type
Flight plan parsing failed, navigation log unavailable